createdAt,value
2018-03-03T00:01:16.157Z,70.75
2018-03-03T00:05:19.555Z,71.53
2018-03-03T00:09:22.955Z,72.03
2018-03-03T00:13:26.325Z,72.21
2018-03-03T00:17:29.706Z,71.46
2018-03-03T00:24:40.951Z,71.68
2018-03-03T00:28:44.545Z,72.02
2018-03-03T00:32:47.913Z,72.04
2018-03-03T00:36:52.656Z,71.67
2018-03-03T00:40:56.041Z,71.75
2018-03-03T00:44:59.479Z,71.87
2018-03-03T00:49:03.692Z,71.12
2018-03-03T00:53:07.829Z,71.46
2018-03-03T00:57:11.957Z,70.74
2018-03-03T01:01:16.118Z,70.86
2018-03-03T01:05:19.611Z,71.04
2018-03-03T01:09:23.018Z,70.58
2018-03-03T01:13:26.522Z,71.12
2018-03-03T01:17:29.886Z,69.14
2018-03-03T01:21:33.330Z,70.19
2018-03-03T01:25:36.711Z,69.49
2018-03-03T01:29:41.039Z,69.64
2018-03-03T01:33:45.265Z,69.07
2018-03-03T01:37:48.697Z,69.33
2018-03-03T01:41:52.101Z,69.12
2018-03-03T01:45:55.521Z,69.54
2018-03-03T01:49:59.134Z,69.42
2018-03-03T01:54:02.635Z,69.03
2018-03-03T01:58:06.069Z,69.09
2018-03-03T02:02:09.631Z,67.96
2018-03-03T02:06:13.150Z,68.78
2018-03-03T02:10:16.531Z,69.04
2018-03-03T02:14:20.662Z,68.93
2018-03-03T02:18:24.786Z,68.43
2018-03-03T02:22:28.931Z,69.67
2018-03-03T02:26:32.328Z,69.57
2018-03-03T02:30:35.697Z,69.47
2018-03-03T02:34:39.066Z,69.59
2018-03-03T02:38:42.442Z,69.61
2018-03-03T02:42:46.630Z,69.10
2018-03-03T02:46:50.011Z,67.85
2018-03-03T02:50:53.578Z,67.21
2018-03-03T02:54:57.714Z,66.94
2018-03-03T02:59:01.123Z,68.36
2018-03-03T03:03:04.487Z,68.12
2018-03-03T03:07:07.867Z,67.91
2018-03-03T03:11:11.243Z,68.07
2018-03-03T03:15:14.604Z,67.18
2018-03-03T03:19:17.978Z,67.59
2018-03-03T03:23:21.359Z,68.21
2018-03-03T03:27:24.750Z,67.98
2018-03-03T03:31:28.886Z,67.68
2018-03-03T03:35:32.252Z,68.35
2018-03-03T03:39:35.619Z,67.67
2018-03-03T03:43:38.967Z,67.70
2018-03-03T03:47:42.341Z,68.58
2018-03-03T03:51:45.698Z,68.07
2018-03-03T03:55:49.855Z,67.55
2018-03-03T03:59:53.229Z,67.97
2018-03-03T04:03:56.603Z,67.89
2018-03-03T04:07:59.990Z,68.06
2018-03-03T04:12:03.376Z,68.00
2018-03-03T04:16:07.150Z,68.60
2018-03-03T04:20:11.281Z,68.32
2018-03-03T04:24:15.433Z,68.09
2018-03-03T04:28:18.798Z,69.14
2018-03-03T04:32:22.917Z,70.11
2018-03-03T04:36:27.057Z,68.87
2018-03-03T04:40:31.184Z,70.20
2018-03-03T04:44:35.303Z,70.05
2018-03-03T04:48:39.448Z,69.24
2018-03-03T04:52:42.967Z,69.45
2018-03-03T04:56:46.358Z,69.44
2018-03-03T05:00:52.520Z,70.29
2018-03-03T05:04:58.121Z,69.79
2018-03-03T05:09:01.573Z,68.31
2018-03-03T05:17:43.887Z,66.44
2018-03-03T05:35:41.694Z,66.53
2018-03-03T05:44:25.788Z,68.07
2018-03-03T05:48:32.046Z,68.96
2018-03-03T05:52:40.993Z,68.17
2018-03-03T05:56:49.932Z,68.97
2018-03-03T06:00:58.876Z,68.83
2018-03-03T06:05:06.668Z,68.89
2018-03-03T06:09:12.394Z,69.65
2018-03-03T06:13:15.780Z,70.07
2018-03-03T06:17:19.912Z,68.87
2018-03-03T06:21:24.060Z,69.83
2018-03-03T06:25:27.433Z,70.21
2018-03-03T06:29:31.562Z,69.62
2018-03-03T06:33:34.942Z,69.93
2018-03-03T06:37:39.846Z,70.72
2018-03-03T06:41:43.209Z,71.00
2018-03-03T06:45:47.393Z,70.84
2018-03-03T06:49:50.771Z,70.06
2018-03-03T06:53:54.216Z,70.73
2018-03-03T06:57:58.371Z,68.71
2018-03-03T07:02:02.650Z,68.19
2018-03-03T07:06:05.979Z,66.53
2018-03-03T07:10:09.364Z,66.39
2018-03-03T07:14:13.102Z,65.45
2018-03-03T07:18:16.487Z,65.40
2018-03-03T07:22:19.922Z,65.03
2018-03-03T07:26:24.073Z,65.35
2018-03-03T07:30:27.467Z,65.11
2018-03-03T07:34:31.610Z,64.86
2018-03-03T07:38:34.989Z,63.35
2018-03-03T07:42:39.131Z,64.22
2018-03-03T07:46:42.512Z,64.09
2018-03-03T07:50:45.877Z,63.85
2018-03-03T07:54:49.249Z,63.21
2018-03-03T07:58:59.490Z,63.10
2018-03-03T08:03:03.836Z,64.15
2018-03-03T08:07:07.229Z,63.76
2018-03-03T08:11:11.466Z,63.16
2018-03-03T08:15:15.658Z,62.65
2018-03-03T08:19:19.038Z,62.59
2018-03-03T08:23:22.505Z,62.76
2018-03-03T08:27:26.682Z,62.26
2018-03-03T08:31:30.052Z,62.45
2018-03-03T08:35:33.450Z,61.83
2018-03-03T08:39:36.825Z,61.46
2018-03-03T08:43:40.203Z,61.47
2018-03-03T08:47:43.814Z,62.06
2018-03-03T08:51:47.193Z,62.03
2018-03-03T08:55:50.668Z,61.41
2018-03-03T08:59:54.843Z,61.32
2018-03-03T09:03:58.307Z,59.82
2018-03-03T09:08:02.463Z,60.09
2018-03-03T09:12:05.902Z,60.24
2018-03-03T09:16:09.282Z,59.90
2018-03-03T09:20:12.667Z,60.16
2018-03-03T09:24:16.044Z,59.43
2018-03-03T09:28:20.186Z,58.41
2018-03-03T09:32:23.725Z,58.51
2018-03-03T09:36:27.102Z,59.04
2018-03-03T09:40:30.505Z,58.95
2018-03-03T09:44:33.897Z,57.66
2018-03-03T09:48:38.055Z,57.40
2018-03-03T09:52:41.435Z,57.45
2018-03-03T09:56:45.584Z,55.98
2018-03-03T10:00:49.077Z,54.98
2018-03-03T10:04:52.449Z,56.70
2018-03-03T10:08:55.950Z,56.00
2018-03-03T10:12:59.384Z,56.70
2018-03-03T10:17:03.537Z,56.48
2018-03-03T10:21:07.135Z,57.88
2018-03-03T10:25:10.501Z,56.41
2018-03-03T10:29:13.921Z,56.13
2018-03-03T10:33:18.045Z,55.34
2018-03-03T10:37:22.502Z,55.07
2018-03-03T10:41:25.867Z,55.25
2018-03-03T10:45:29.249Z,55.40
2018-03-03T10:49:32.620Z,56.62
2018-03-03T10:53:35.988Z,56.49
2018-03-03T10:57:39.363Z,56.89
2018-03-03T11:01:42.728Z,56.48
2018-03-03T11:05:46.124Z,56.00
2018-03-03T11:09:50.258Z,56.47
2018-03-03T11:13:53.633Z,57.75
2018-03-03T11:17:57.205Z,57.80
2018-03-03T11:22:00.615Z,58.95
2018-03-03T11:26:04.110Z,58.01
2018-03-03T11:30:07.515Z,55.81
2018-03-03T11:34:10.946Z,57.32
2018-03-03T11:38:14.316Z,57.68
2018-03-03T11:42:17.915Z,56.93
2018-03-03T11:46:21.285Z,57.40
2018-03-03T11:50:24.683Z,57.26
2018-03-03T11:54:28.271Z,57.36
2018-03-03T11:58:31.883Z,56.34
2018-03-03T12:02:35.369Z,57.10
2018-03-03T12:06:38.741Z,56.05
2018-03-03T12:10:42.135Z,56.32
2018-03-03T12:14:45.535Z,57.80
2018-03-03T12:18:48.909Z,56.95
2018-03-03T12:22:52.303Z,57.19
2018-03-03T12:26:55.934Z,57.04
2018-03-03T12:30:59.429Z,57.28
2018-03-03T12:35:02.844Z,57.66
2018-03-03T12:39:06.236Z,57.85
2018-03-03T12:43:09.778Z,58.46
2018-03-03T12:47:13.291Z,58.02
2018-03-03T12:51:16.735Z,58.11
2018-03-03T12:55:20.897Z,60.35
2018-03-03T12:59:24.290Z,60.53
2018-03-03T13:03:27.664Z,59.35
2018-03-03T13:07:31.881Z,60.39
2018-03-03T13:11:36.108Z,58.88
2018-03-03T13:15:40.271Z,60.12
2018-03-03T13:19:43.688Z,59.57
2018-03-03T13:23:47.174Z,59.01
2018-03-03T13:27:50.678Z,60.54
2018-03-03T13:31:54.079Z,60.35
2018-03-03T13:35:58.238Z,59.62
2018-03-03T13:40:01.637Z,61.79
2018-03-03T13:44:05.042Z,61.08
2018-03-03T13:48:08.699Z,61.79
2018-03-03T13:52:12.885Z,61.41
2018-03-03T13:56:16.298Z,61.67
2018-03-03T14:00:19.726Z,62.03
2018-03-03T14:04:23.104Z,62.40
2018-03-03T14:08:26.494Z,62.78
2018-03-03T14:12:29.893Z,62.82
2018-03-03T14:16:33.355Z,62.25
2018-03-03T14:20:36.800Z,63.65
2018-03-03T14:24:41.063Z,62.96
2018-03-03T14:28:44.561Z,64.59
2018-03-03T14:32:47.963Z,63.29
2018-03-03T14:36:51.386Z,62.86
2018-03-03T14:40:54.783Z,63.53
2018-03-03T14:44:58.355Z,63.33
2018-03-03T14:49:01.754Z,63.17
2018-03-03T14:53:05.147Z,63.55
2018-03-03T14:57:08.861Z,63.14
2018-03-03T15:01:12.316Z,62.85
2018-03-03T15:05:15.735Z,63.76
2018-03-03T15:09:19.085Z,63.81
2018-03-03T15:13:22.715Z,63.08
2018-03-03T15:17:27.028Z,63.32
2018-03-03T15:21:30.562Z,64.20
2018-03-03T15:25:33.944Z,64.98
2018-03-03T15:29:37.325Z,64.38
2018-03-03T15:33:40.705Z,65.43
2018-03-03T15:37:44.075Z,66.17
2018-03-03T15:41:48.240Z,66.60
2018-03-03T15:45:51.921Z,66.39
2018-03-03T15:49:56.056Z,65.99
2018-03-03T15:53:59.836Z,65.67
2018-03-03T15:58:03.223Z,65.65
2018-03-03T16:02:06.700Z,63.79
2018-03-03T16:06:10.057Z,60.95
2018-03-03T16:10:13.421Z,59.35
2018-03-03T16:14:16.790Z,58.49
2018-03-03T16:18:20.310Z,59.31
2018-03-03T16:22:23.697Z,59.37
2018-03-03T16:26:27.847Z,61.82
2018-03-03T16:30:31.222Z,62.95
2018-03-03T16:34:35.364Z,64.51
2018-03-03T16:38:38.740Z,65.63
2018-03-03T16:42:42.136Z,66.36
2018-03-03T16:46:45.514Z,68.33
2018-03-03T16:50:48.927Z,68.32
2018-03-03T16:54:52.298Z,68.98
2018-03-03T16:58:55.789Z,68.34
2018-03-03T17:02:59.965Z,68.81
2018-03-03T17:07:03.349Z,69.27
2018-03-03T17:11:06.856Z,69.59
2018-03-03T17:15:10.250Z,70.00
2018-03-03T17:19:13.629Z,69.41
2018-03-03T17:23:17.793Z,68.99
2018-03-03T17:27:21.202Z,68.67
2018-03-03T17:31:24.582Z,69.30
2018-03-03T17:35:27.987Z,69.76
2018-03-03T17:39:31.369Z,70.34
2018-03-03T17:43:34.772Z,70.53
2018-03-03T17:47:38.330Z,69.59
2018-03-03T17:51:41.719Z,69.65
2018-03-03T17:55:45.117Z,70.71
2018-03-03T17:59:49.274Z,70.93
2018-03-03T18:03:52.668Z,70.96
2018-03-03T18:07:56.050Z,70.91
2018-03-03T18:12:00.203Z,69.67
2018-03-03T18:16:03.581Z,70.07
2018-03-03T18:20:07.728Z,70.49
2018-03-03T18:28:50.325Z,69.57
2018-03-03T18:32:53.744Z,69.66
2018-03-03T18:36:58.006Z,68.99
2018-03-03T18:41:01.402Z,69.57
2018-03-03T18:45:04.782Z,70.38
2018-03-03T18:49:08.175Z,70.93
2018-03-03T18:53:11.595Z,70.60
2018-03-03T18:57:14.982Z,69.67
2018-03-03T19:01:18.357Z,69.37
2018-03-03T19:05:21.883Z,68.92
2018-03-03T19:09:25.289Z,67.85
2018-03-03T19:13:28.672Z,66.19
2018-03-03T19:17:32.074Z,66.68
2018-03-03T19:21:35.498Z,66.29
2018-03-03T19:25:38.890Z,67.05
2018-03-03T19:29:42.307Z,66.84
2018-03-03T19:33:45.692Z,67.35
2018-03-03T19:37:49.289Z,67.18
2018-03-03T19:41:53.487Z,66.46
2018-03-03T19:45:56.843Z,66.99
2018-03-03T19:50:00.373Z,65.84
2018-03-03T19:54:03.888Z,65.46
2018-03-03T19:58:07.554Z,65.05
2018-03-03T20:02:11.110Z,65.33
2018-03-03T20:06:14.569Z,65.78
2018-03-03T20:10:18.024Z,66.12
2018-03-03T20:14:21.423Z,65.46
2018-03-03T20:18:24.830Z,64.82
2018-03-03T20:22:28.240Z,64.50
2018-03-03T20:26:31.617Z,64.82
2018-03-03T20:30:35.036Z,65.36
2018-03-03T20:34:38.421Z,65.50
2018-03-03T20:38:41.794Z,65.92
2018-03-03T20:42:45.176Z,66.62
2018-03-03T20:46:48.643Z,67.67
2018-03-03T20:50:52.084Z,67.33
2018-03-03T20:54:55.479Z,67.17
2018-03-03T20:58:58.868Z,67.46
2018-03-03T21:03:02.274Z,68.38
2018-03-03T21:07:05.666Z,68.12
2018-03-03T21:11:09.091Z,68.50
2018-03-03T21:15:12.517Z,68.52
2018-03-03T21:19:15.997Z,68.50
2018-03-03T21:23:19.385Z,68.06
2018-03-03T21:27:23.537Z,67.87
2018-03-03T21:31:26.944Z,68.27
2018-03-03T21:35:30.329Z,68.34
2018-03-03T21:39:33.726Z,67.38
2018-03-03T21:43:37.879Z,68.50
2018-03-03T21:47:41.277Z,67.79
2018-03-03T21:51:44.673Z,68.11
2018-03-03T21:55:48.054Z,69.57
2018-03-03T21:59:52.226Z,69.50
2018-03-03T22:03:55.618Z,70.26
2018-03-03T22:07:59.120Z,70.49
2018-03-03T22:12:02.493Z,70.84
2018-03-03T22:16:05.873Z,70.47
2018-03-03T22:20:09.506Z,70.21
2018-03-03T22:24:12.905Z,68.75
2018-03-03T22:28:16.308Z,69.42
2018-03-03T22:32:19.682Z,68.88
2018-03-03T22:36:23.087Z,69.26
2018-03-03T22:40:26.582Z,67.60
2018-03-03T22:44:29.947Z,67.42
2018-03-03T22:48:34.109Z,68.25
2018-03-03T22:52:37.485Z,68.64
2018-03-03T22:56:41.104Z,69.15
2018-03-03T23:00:45.279Z,69.15
2018-03-03T23:04:48.779Z,69.55
2018-03-03T23:08:52.178Z,69.66
2018-03-03T23:12:55.570Z,70.42
2018-03-03T23:16:58.996Z,70.08
2018-03-03T23:21:02.389Z,69.83
2018-03-03T23:25:05.762Z,69.91
2018-03-03T23:29:09.902Z,69.96
2018-03-03T23:33:13.492Z,70.49
2018-03-03T23:37:17.651Z,70.41
2018-03-03T23:41:21.146Z,70.53
2018-03-03T23:45:24.562Z,70.51
2018-03-03T23:49:27.964Z,71.17
2018-03-03T23:53:31.346Z,71.39
2018-03-03T23:57:35.507Z,71.51
